Time;durP1;ratioP1;P1;durP2;ratioP2;P2;SDS_P1;SDS_P2;PMS_P1;PMS_P2;Temp;Humidity;BMP_temperature;BMP_pressure;BME280_temperature;BME280_humidity;BME280_pressure;Samples;Min_cycle;Max_cycle;Signal;HPM_P1;HPM_P2
2021/11/07 00:04:26;;;;;;;;;;;;;;;9.47;100.00;99269.47;5085480;27;19920;-70
2021/11/07 00:06:58;;;;;;;;;;;;;;;9.60;100.00;99265.72;5086852;28;20689;-70
2021/11/07 00:12:01;;;;;;;;;;;;;;;9.56;100.00;99258.13;5086650;28;19926;-70
2021/11/07 00:17:33;;;;;;;;;;;;;;;9.50;100.00;99248.81;5094198;28;19919;-70
2021/11/07 00:20:46;;;;;;;;;;;;;;;9.55;100.00;99244.41;5066505;28;19920;-70
2021/11/07 00:25:30;;;;;;;;;;;;;;;9.81;100.00;99232.66;5066732;28;19951;-70
2021/11/07 00:28:03;;;;;;;;;;;;;;;9.76;100.00;99234.47;5084933;28;19920;-70
2021/11/07 00:36:34;;;;;;;;;;;;;;;9.69;100.00;99223.47;5085184;28;20536;-70
2021/11/07 00:39:15;;;;;;;;;;;;;;;9.74;100.00;99224.25;5087361;28;20007;-70
2021/11/07 00:42:04;;;;;;;;;;;;;;;9.68;100.00;99226.13;5084388;28;19997;-67
2021/11/07 00:44:46;;;;;;;;;;;;;;;9.97;100.00;99218.50;5081829;28;20298;-70
2021/11/07 00:47:59;;;;;;;;;;;;;;;10.02;100.00;99211.50;5066405;28;20458;-70
2021/11/07 00:50:12;;;;;;;;;;;;;;;9.49;100.00;99213.72;5073060;28;19931;-70
2021/11/07 00:52:52;;;;;;;;;;;;;;;9.83;100.00;99218.03;5084904;28;19920;-70
2021/11/07 00:55:40;;;;;;;;;;;;;;;9.82;100.00;99226.59;5082933;28;19920;-70
2021/11/07 00:58:18;;;;;;;;;;;;;;;10.05;100.00;99221.69;5082647;28;19920;-70
2021/11/07 01:01:01;;;;;;;;;;;;;;;9.58;100.00;99216.06;5090626;28;19923;-70
2021/11/07 01:03:34;;;;;;;;;;;;;;;9.53;100.00;99207.59;5030040;28;19969;-70
2021/11/07 01:06:19;;;;;;;;;;;;;;;9.61;100.00;99200.53;5043497;28;19917;-70
2021/11/07 01:08:45;;;;;;;;;;;;;;;9.64;100.00;99213.31;5037876;28;19913;-70
2021/11/07 01:11:10;;;;;;;;;;;;;;;9.55;100.00;99207.56;5029243;28;19935;-70
2021/11/07 01:13:55;;;;;;;;;;;;;;;9.32;100.00;99223.53;5036505;28;20299;-71
2021/11/07 01:16:21;;;;;;;;;;;;;;;9.36;100.00;99215.72;5021744;28;19944;-70
2021/11/07 01:18:48;;;;;;;;;;;;;;;9.45;100.00;99214.66;5043572;28;20014;-70
2021/11/07 01:21:15;;;;;;;;;;;;;;;9.52;100.00;99220.50;5044087;28;19966;-71
2021/11/07 01:23:44;;;;;;;;;;;;;;;9.22;100.00;99233.19;5048119;28;19917;-70
2021/11/07 01:26:18;;;;;;;;;;;;;;;9.20;100.00;99240.94;5045649;28;19960;-70
2021/11/07 01:28:50;;;;;;;;;;;;;;;9.14;100.00;99235.91;5041632;28;20381;-70
2021/11/07 01:31:19;;;;;;;;;;;;;;;9.48;100.00;99230.00;5047594;28;20685;-70
2021/11/07 01:33:50;;;;;;;;;;;;;;;9.60;100.00;99234.88;5050082;28;20375;-70
2021/11/07 01:36:38;;;;;;;;;;;;;;;9.48;100.00;99230.00;5084167;28;19915;-71
2021/11/07 01:39:15;;;;;;;;;;;;;;;9.28;100.00;99227.06;5085451;27;19955;-70
2021/11/07 01:42:01;;;;;;;;;;;;;;;9.21;100.00;99222.06;5089233;28;19931;-70
2021/11/07 01:44:44;;;;;;;;;;;;;;;9.41;100.00;99213.88;5093217;28;19927;-71
2021/11/07 01:47:13;;;;;;;;;;;;;;;9.27;100.00;99204.81;5090213;27;19924;-70
2021/11/07 01:49:42;;;;;;;;;;;;;;;9.51;100.00;99193.97;5059440;28;20423;-70
2021/11/07 01:52:09;;;;;;;;;;;;;;;9.18;100.00;99196.44;5088417;28;19955;-70
2021/11/07 01:54:59;;;;;;;;;;;;;;;9.19;100.00;99198.13;5059711;28;19930;-71
2021/11/07 01:57:26;;;;;;;;;;;;;;;9.13;100.00;99198.28;5093456;28;19916;-70
2021/11/07 01:59:55;;;;;;;;;;;;;;;9.54;100.00;99193.88;5071322;28;19919;-71
2021/11/07 02:02:26;;;;;;;;;;;;;;;9.40;100.00;99181.34;5073895;28;19951;-71
2021/11/07 02:04:55;;;;;;;;;;;;;;;9.58;100.00;99174.09;5090825;28;20029;-70
2021/11/07 02:07:20;;;;;;;;;;;;;;;9.23;100.00;99167.22;5078201;27;20001;-70
2021/11/07 02:09:47;;;;;;;;;;;;;;;9.42;100.00;99168.47;5089900;28;19931;-70
2021/11/07 02:12:18;;;;;;;;;;;;;;;9.24;100.00;99168.88;5089558;28;19931;-71
2021/11/07 02:14:45;;;;;;;;;;;;;;;9.28;100.00;99155.09;5083583;28;19920;-70
2021/11/07 02:17:12;;;;;;;;;;;;;;;9.34;100.00;99149.81;5066930;28;19912;-71
2021/11/07 02:19:44;;;;;;;;;;;;;;;9.25;100.00;99140.59;5067165;28;20614;-71
2021/11/07 02:22:11;;;;;;;;;;;;;;;9.23;100.00;99152.63;5070601;28;20386;-72
2021/11/07 02:24:39;;;;;;;;;;;;;;;9.20;100.00;99148.41;5067250;28;20428;-71
2021/11/07 02:27:10;;;;;;;;;;;;;;;9.03;100.00;99155.66;5085482;27;20533;-71
2021/11/07 02:29:42;;;;;;;;;;;;;;;8.95;100.00;99160.16;5064047;28;19966;-71
2021/11/07 02:32:11;;;;;;;;;;;;;;;8.89;100.00;99162.84;5086523;28;19915;-71
2021/11/07 02:34:47;;;;;;;;;;;;;;;8.85;100.00;99161.22;5086964;28;20047;-70
2021/11/07 02:37:15;;;;;;;;;;;;;;;8.74;100.00;99171.75;5083886;28;19916;-71
2021/11/07 02:39:41;;;;;;;;;;;;;;;8.94;100.00;99167.03;5046207;28;19947;-71
2021/11/07 02:42:07;;;;;;;;;;;;;;;9.32;100.00;99167.00;5072806;28;20041;-71
2021/11/07 02:44:35;;;;;;;;;;;;;;;9.11;100.00;99156.34;5056761;28;19959;-71
2021/11/07 02:47:06;;;;;;;;;;;;;;;9.00;100.00;99176.31;5070865;28;19916;-70
2021/11/07 02:49:31;;;;;;;;;;;;;;;8.95;100.00;99168.69;5070196;28;19920;-71
2021/11/07 02:52:02;;;;;;;;;;;;;;;8.91;100.00;99181.66;5073588;28;19912;-70
2021/11/07 02:54:29;;;;;;;;;;;;;;;8.89;100.00;99170.56;5072111;28;19919;-70
2021/11/07 02:56:56;;;;;;;;;;;;;;;8.72;100.00;99181.22;5073946;28;20302;-70
2021/11/07 02:59:24;;;;;;;;;;;;;;;9.02;100.00;99191.69;5051286;28;19916;-70
2021/11/07 03:01:59;;;;;;;;;;;;;;;8.58;100.00;99184.06;5071807;28;20568;-70
2021/11/07 03:04:28;;;;;;;;;;;;;;;8.80;100.00;99184.44;5073389;28;19966;-69
2021/11/07 03:06:55;;;;;;;;;;;;;;;8.81;100.00;99198.16;5074255;28;19916;-70
2021/11/07 03:09:23;;;;;;;;;;;;;;;8.72;100.00;99206.91;5072685;28;20418;-70
2021/11/07 03:11:50;;;;;;;;;;;;;;;9.07;100.00;99200.97;5087458;28;19918;-69
2021/11/07 03:14:18;;;;;;;;;;;;;;;9.23;100.00;99193.75;5086835;28;20290;-70
2021/11/07 03:16:51;;;;;;;;;;;;;;;8.81;100.00;99198.16;5067449;28;19961;-70
2021/11/07 03:19:19;;;;;;;;;;;;;;;9.09;100.00;99191.50;5092659;28;19919;-70
2021/11/07 03:21:45;;;;;;;;;;;;;;;9.26;100.00;99175.72;5066227;28;19965;-70
2021/11/07 03:24:12;;;;;;;;;;;;;;;8.95;100.00;99163.56;5054726;28;19915;-70
2021/11/07 03:26:38;;;;;;;;;;;;;;;9.24;100.00;99164.63;5068303;28;19963;-70
2021/11/07 03:29:08;;;;;;;;;;;;;;;9.06;100.00;99160.75;5077952;28;19922;-70
2021/11/07 03:32:04;;;;;;;;;;;;;;;9.19;100.00;99167.31;5086304;28;20060;-70
2021/11/07 03:34:32;;;;;;;;;;;;;;;8.82;100.00;99176.72;5090611;28;19927;-71
2021/11/07 03:37:08;;;;;;;;;;;;;;;9.14;100.00;99179.38;5088395;28;20566;-71
2021/11/07 03:39:35;;;;;;;;;;;;;;;8.89;100.00;99179.09;5082849;28;19915;-70
2021/11/07 03:42:00;;;;;;;;;;;;;;;9.16;100.00;99171.66;5066353;28;19924;-70
2021/11/07 03:44:26;;;;;;;;;;;;;;;9.04;100.00;99167.66;5068403;28;19911;-70
2021/11/07 03:46:57;;;;;;;;;;;;;;;8.74;100.00;99170.03;5080985;28;20014;-69
2021/11/07 03:49:26;;;;;;;;;;;;;;;9.13;100.00;99158.91;5079838;28;20287;-70
2021/11/07 03:51:53;;;;;;;;;;;;;;;8.97;100.00;99163.53;5057255;28;20517;-69
2021/11/07 03:54:22;;;;;;;;;;;;;;;9.31;100.00;99155.88;5071616;28;19909;-70
2021/11/07 03:56:50;;;;;;;;;;;;;;;8.99;100.00;99133.53;5075732;27;20439;-70
2021/11/07 03:59:16;;;;;;;;;;;;;;;9.13;100.00;99121.19;5084448;28;21025;-70
2021/11/07 04:01:42;;;;;;;;;;;;;;;9.20;100.00;99122.72;5083179;28;19927;-70
2021/11/07 04:04:11;;;;;;;;;;;;;;;9.53;100.00;99109.91;5077401;28;19912;-69
2021/11/07 04:06:37;;;;;;;;;;;;;;;9.28;100.00;99109.69;5078691;28;19923;-70
2021/11/07 04:09:06;;;;;;;;;;;;;;;9.36;100.00;99096.66;5086360;27;21012;-70
2021/11/07 04:11:32;;;;;;;;;;;;;;;9.26;100.00;99090.03;5090106;28;19919;-70
2021/11/07 04:14:01;;;;;;;;;;;;;;;9.36;100.00;99087.22;5079277;28;19926;-70
2021/11/07 04:16:29;;;;;;;;;;;;;;;9.05;100.00;99081.97;5086949;28;19923;-71
2021/11/07 04:18:54;;;;;;;;;;;;;;;9.10;100.00;99077.59;5075280;28;19919;-70
2021/11/07 04:21:26;;;;;;;;;;;;;;;9.10;100.00;99075.03;5081935;28;20390;-70
2021/11/07 04:23:51;;;;;;;;;;;;;;;9.00;100.00;99083.81;5080975;28;20050;-70
2021/11/07 04:26:17;;;;;;;;;;;;;;;9.42;100.00;99086.22;5084372;28;19977;-70
2021/11/07 04:28:43;;;;;;;;;;;;;;;9.07;100.00;99069.13;5063291;28;19920;-70
2021/11/07 04:31:09;;;;;;;;;;;;;;;9.17;100.00;99066.28;5066891;28;19963;-70
2021/11/07 04:33:37;;;;;;;;;;;;;;;9.03;100.00;99052.91;5073508;28;19924;-71
2021/11/07 04:36:06;;;;;;;;;;;;;;;9.53;100.00;99062.78;5080922;28;20390;-70
2021/11/07 04:38:34;;;;;;;;;;;;;;;9.28;100.00;99052.31;5084115;28;20302;-70
2021/11/07 04:41:00;;;;;;;;;;;;;;;9.54;100.00;99033.63;5086203;28;19931;-71
2021/11/07 04:43:29;;;;;;;;;;;;;;;9.04;100.00;99039.22;5064288;28;19924;-71
2021/11/07 04:45:54;;;;;;;;;;;;;;;9.26;100.00;99048.94;5076760;28;20418;-71
2021/11/07 04:48:45;;;;;;;;;;;;;;;9.33;100.00;99050.47;5064743;28;19959;-70
2021/11/07 04:51:32;;;;;;;;;;;;;;;9.02;100.00;99051.25;5061978;28;20563;-70
2021/11/07 04:53:58;;;;;;;;;;;;;;;9.53;100.00;99040.47;5070471;28;20735;-69
2021/11/07 04:56:24;;;;;;;;;;;;;;;9.21;100.00;99047.34;5065904;28;19924;-70
2021/11/07 04:58:55;;;;;;;;;;;;;;;9.26;100.00;99046.34;5068817;28;19924;-70
2021/11/07 05:01:24;;;;;;;;;;;;;;;9.75;100.00;99047.63;5076628;28;19931;-70
2021/11/07 05:03:49;;;;;;;;;;;;;;;9.41;100.00;99038.25;5075858;28;19999;-72
2021/11/07 05:06:15;;;;;;;;;;;;;;;9.30;100.00;99035.97;5071644;28;20003;-70
2021/11/07 05:08:42;;;;;;;;;;;;;;;9.31;100.00;99042.81;5074676;28;20045;-70
2021/11/07 05:11:10;;;;;;;;;;;;;;;9.52;100.00;99054.22;5072805;28;19972;-70
2021/11/07 05:13:35;;;;;;;;;;;;;;;9.49;100.00;99044.03;5066591;28;19916;-70
2021/11/07 05:16:01;;;;;;;;;;;;;;;9.61;100.00;99046.28;5068873;28;19922;-70
2021/11/07 05:18:28;;;;;;;;;;;;;;;9.48;100.00;99029.50;5072174;28;19923;-70
2021/11/07 05:20:54;;;;;;;;;;;;;;;9.37;100.00;99026.34;5070986;28;20032;-70
2021/11/07 05:23:19;;;;;;;;;;;;;;;9.30;100.00;99035.97;5074348;28;20010;-70
2021/11/07 05:25:45;;;;;;;;;;;;;;;9.45;100.00;99023.59;5069302;28;20636;-70
2021/11/07 05:28:10;;;;;;;;;;;;;;;9.46;100.00;99020.13;5070108;28;19911;-70
2021/11/07 05:31:03;;;;;;;;;;;;;;;9.52;100.00;99036.25;5070674;28;19921;-70
2021/11/07 05:36:53;;;;;;;;;;;;;;;9.40;100.00;99046.84;5022474;28;20394;-71
2021/11/07 05:39:21;;;;;;;;;;;;;;;9.57;100.00;99046.41;5027144;28;20034;-70
2021/11/07 05:41:47;;;;;;;;;;;;;;;9.48;100.00;99033.78;5020212;28;19921;-71
2021/11/07 05:44:21;;;;;;;;;;;;;;;9.50;100.00;99058.56;5027928;28;19982;-71
2021/11/07 05:46:48;;;;;;;;;;;;;;;9.48;100.00;99044.91;5007323;28;19929;-71
2021/11/07 05:49:17;;;;;;;;;;;;;;;9.35;100.00;99053.81;5025282;28;20008;-70
2021/11/07 05:51:43;;;;;;;;;;;;;;;9.66;100.00;99053.03;5044124;28;19967;-71
2021/11/07 05:54:11;;;;;;;;;;;;;;;9.62;100.00;99058.25;5024775;28;20409;-71
2021/11/07 05:56:41;;;;;;;;;;;;;;;9.85;100.00;99043.88;5028319;28;19956;-71
2021/11/07 05:59:07;;;;;;;;;;;;;;;9.40;100.00;99021.16;5023830;28;20418;-71
2021/11/07 06:01:35;;;;;;;;;;;;;;;9.59;100.00;99035.19;5011902;28;19924;-70
2021/11/07 06:04:09;;;;;;;;;;;;;;;9.66;100.00;99040.16;5014616;28;19925;-70
2021/11/07 06:06:43;;;;;;;;;;;;;;;9.43;100.00;99027.03;5026224;28;20467;-71
2021/11/07 06:09:10;;;;;;;;;;;;;;;9.61;100.00;99038.56;5043921;28;20003;-70
2021/11/07 06:11:39;;;;;;;;;;;;;;;9.82;100.00;99028.56;5069251;28;19923;-69
2021/11/07 06:14:05;;;;;;;;;;;;;;;9.60;100.00;99021.47;5072414;28;19916;-70
2021/11/07 06:16:39;;;;;;;;;;;;;;;9.37;100.00;99034.94;5048153;28;19939;-71
2021/11/07 06:19:17;;;;;;;;;;;;;;;9.58;100.00;99036.06;5067031;28;19915;-71
2021/11/07 06:21:46;;;;;;;;;;;;;;;9.38;100.00;99046.06;5056121;28;19944;-70
2021/11/07 06:24:18;;;;;;;;;;;;;;;9.60;100.00;99029.16;5063845;28;19920;-71
2021/11/07 06:26:43;;;;;;;;;;;;;;;9.48;100.00;99019.19;5066495;28;19923;-71
2021/11/07 06:29:10;;;;;;;;;;;;;;;9.43;100.00;99019.34;5065420;28;19916;-71
2021/11/07 06:31:36;;;;;;;;;;;;;;;9.54;100.00;99026.75;5067054;28;20002;-70
2021/11/07 06:34:05;;;;;;;;;;;;;;;9.74;100.00;99017.63;5046724;28;20003;-71
2021/11/07 06:36:31;;;;;;;;;;;;;;;9.68;100.00;99020.41;5068250;28;19997;-70
2021/11/07 06:38:59;;;;;;;;;;;;;;;9.81;100.00;99011.44;5065679;28;19928;-71
2021/11/07 06:41:25;;;;;;;;;;;;;;;9.53;100.00;99019.91;5065307;28;19916;-71
2021/11/07 06:43:51;;;;;;;;;;;;;;;9.57;100.00;99023.25;5063181;28;19931;-71
2021/11/07 06:46:19;;;;;;;;;;;;;;;9.91;100.00;99038.59;5067649;27;19924;-69
2021/11/07 06:48:55;;;;;;;;;;;;;;;10.00;100.00;99025.44;5086081;28;19951;-71
2021/11/07 06:51:21;;;;;;;;;;;;;;;9.86;100.00;99025.00;5081948;27;20288;-71
2021/11/07 06:54:07;;;;;;;;;;;;;;;9.79;100.00;99013.22;5086411;27;19946;-70
2021/11/07 08:17:52;;;;;;;;;;;;;;;9.81;97.12;99022.56;5275725;22;19966;-69
2021/11/07 08:20:18;;;;;;;;;;;;;;;9.63;100.00;99007.66;5022969;28;20048;-69
2021/11/07 08:22:44;;;;;;;;;;;;;;;9.73;100.00;99010.81;5016090;28;19917;-69
2021/11/07 08:25:12;;;;;;;;;;;;;;;9.61;100.00;99012.84;5014078;28;20167;-70
2021/11/07 08:27:39;;;;;;;;;;;;;;;9.72;100.00;99007.41;5000499;28;19921;-70
2021/11/07 08:30:05;;;;;;;;;;;;;;;9.66;100.00;99004.16;4980931;28;19918;-69
2021/11/07 08:32:30;;;;;;;;;;;;;;;9.48;100.00;98993.50;4996982;28;19927;-70
2021/11/07 08:34:59;;;;;;;;;;;;;;;9.58;100.00;98994.94;4979703;28;19929;-69
2021/11/07 08:37:43;;;;;;;;;;;;;;;9.78;100.00;98998.66;4996335;28;19992;-69
2021/11/07 08:40:11;;;;;;;;;;;;;;;9.71;100.00;98994.59;4994432;28;19921;-69
2021/11/07 08:42:44;;;;;;;;;;;;;;;9.65;100.00;98993.03;4994224;28;20005;-70
2021/11/07 08:54:32;;;;;;;;;;;;;;;9.51;100.00;98998.56;4993971;28;20036;-69
2021/11/07 09:07:39;;;;;;;;;;;;;;;9.39;100.00;99004.03;4970475;28;19929;-70
2021/11/07 09:10:03;;;;;;;;;;;;;;;9.50;100.00;98996.88;4994308;28;19922;-69
2021/11/07 09:12:32;;;;;;;;;;;;;;;9.48;100.00;99003.78;4989908;28;19917;-69
2021/11/07 09:14:57;;;;;;;;;;;;;;;9.50;100.00;99009.72;4977802;28;20024;-70
2021/11/07 09:17:23;;;;;;;;;;;;;;;9.41;100.00;99009.97;4974993;28;20056;-69
2021/11/07 09:19:53;;;;;;;;;;;;;;;9.50;100.00;99017.44;4995893;28;19988;-69
2021/11/07 09:22:33;;;;;;;;;;;;;;;9.60;100.00;99018.88;4989307;28;19929;-69
2021/11/07 09:25:38;;;;;;;;;;;;;;;9.44;100.00;99033.03;4990457;28;19968;-69
2021/11/07 09:28:38;;;;;;;;;;;;;;;9.45;100.00;99028.75;4996743;28;20533;-69
2021/11/07 09:44:10;;;;;;;;;;;;;;;9.72;100.00;99037.44;4900258;29;20162;-69
2021/11/07 09:49:26;;;;;;;;;;;;;;;9.73;100.00;99039.94;4902807;29;19937;-69
2021/11/07 09:52:49;;;;;;;;;;;;;;;9.85;100.00;99041.31;4885781;29;19923;-70
2021/11/07 09:55:34;;;;;;;;;;;;;;;9.68;100.00;99046.94;4898147;29;20386;-69
2021/11/07 09:58:09;;;;;;;;;;;;;;;9.71;100.00;99041.72;4896785;29;19929;-70
2021/11/07 10:00:57;;;;;;;;;;;;;;;9.73;100.00;99044.25;4897173;29;19927;-69
2021/11/07 10:03:51;;;;;;;;;;;;;;;9.82;100.00;99044.00;4889610;29;20017;-69
2021/11/07 10:06:44;;;;;;;;;;;;;;;9.91;100.00;99036.00;4898137;29;20008;-69
2021/11/07 10:10:02;;;;;;;;;;;;;;;9.76;100.00;99036.44;4899675;29;20456;-69
2021/11/07 10:12:22;;;;;;;;;;;;;;;9.98;100.00;99034.94;4898076;29;20413;-70
2021/11/07 10:14:51;;;;;;;;;;;;;;;9.88;100.00;99030.97;4899036;29;20710;-69
2021/11/07 10:17:29;;;;;;;;;;;;;;;9.72;100.00;99022.84;4912261;28;19930;-71
2021/11/07 10:20:05;;;;;;;;;;;;;;;9.73;100.00;99015.97;4983770;28;19932;-70
2021/11/07 10:22:40;;;;;;;;;;;;;;;9.86;100.00;99007.00;4996548;28;19930;-69
2021/11/07 10:25:11;;;;;;;;;;;;;;;9.78;100.00;99016.66;4996106;28;19922;-69
2021/11/07 10:27:38;;;;;;;;;;;;;;;9.73;100.00;99008.25;5000099;28;19914;-71
2021/11/07 10:30:13;;;;;;;;;;;;;;;9.88;100.00;98997.53;4997315;28;19972;-69
2021/11/07 10:32:42;;;;;;;;;;;;;;;9.52;100.00;99005.38;4995926;28;19914;-70
2021/11/07 10:46:12;;;;;;;;;;;;;;;9.73;100.00;99003.09;4974769;28;19929;-69
2021/11/07 10:48:20;;;;;;;;;;;;;;;9.64;100.00;98994.75;4997465;28;20335;-67
2021/11/07 10:53:40;;;;;;;;;;;;;;;10.07;100.00;98987.53;4990699;28;19931;-67
2021/11/07 10:56:06;;;;;;;;;;;;;;;10.32;100.00;98982.50;4977961;28;19956;-67
2021/11/07 10:58:37;;;;;;;;;;;;;;;10.39;100.00;98986.56;4993525;28;19960;-68
2021/11/07 11:01:10;;;;;;;;;;;;;;;10.28;100.00;98980.88;4995162;28;19933;-67
2021/11/07 11:03:43;;;;;;;;;;;;;;;10.09;100.00;98965.16;4980200;28;19917;-67
2021/11/07 11:06:17;;;;;;;;;;;;;;;9.89;100.00;98967.50;4979006;28;19921;-67
2021/11/07 11:08:56;;;;;;;;;;;;;;;10.07;100.00;98960.97;4996396;28;20016;-67
2021/11/07 11:19:31;;;;;;;;;;;;;;;9.83;100.00;98917.94;4997091;28;20012;-67
2021/11/07 11:27:29;;;;;;;;;;;;;;;10.16;100.00;98909.22;4996241;28;19925;-67
2021/11/07 11:38:22;;;;;;;;;;;;;;;10.35;100.00;98894.88;4981789;28;20629;-67
2021/11/07 11:40:55;;;;;;;;;;;;;;;10.19;100.00;98884.19;4981708;28;19921;-67
2021/11/07 11:43:30;;;;;;;;;;;;;;;10.00;100.00;98894.25;4996227;28;19933;-67
2021/11/07 11:46:02;;;;;;;;;;;;;;;10.18;100.00;98881.69;4980157;28;19980;-67
2021/11/07 11:57:04;;;;;;;;;;;;;;;10.88;100.00;98855.31;4995897;28;19959;-67
2021/11/07 11:59:41;;;;;;;;;;;;;;;11.06;100.00;98856.38;4990817;28;20466;-67
2021/11/07 12:02:10;;;;;;;;;;;;;;;10.75;100.00;98844.59;4989477;28;19934;-67
2021/11/07 12:04:55;;;;;;;;;;;;;;;10.58;100.00;98846.91;4975531;28;19943;-67
2021/11/07 12:07:24;;;;;;;;;;;;;;;10.43;100.00;98840.56;4993013;28;19928;-67
2021/11/07 12:09:56;;;;;;;;;;;;;;;10.17;100.00;98843.97;4993870;28;20403;-66
2021/11/07 12:12:30;;;;;;;;;;;;;;;10.16;100.00;98850.03;4993412;28;19921;-67
2021/11/07 12:17:47;;;;;;;;;;;;;;;10.25;100.00;98862.59;4992725;28;19937;-70
2021/11/07 12:20:38;;;;;;;;;;;;;;;10.54;100.00;98860.81;4992634;28;19918;-67
2021/11/07 12:23:26;;;;;;;;;;;;;;;10.62;100.00;98856.22;4983562;28;19917;-66
2021/11/07 12:25:52;;;;;;;;;;;;;;;10.31;100.00;98853.84;4990664;28;19928;-67
2021/11/07 12:28:18;;;;;;;;;;;;;;;10.00;100.00;98853.06;4992608;28;19922;-67
2021/11/07 12:30:44;;;;;;;;;;;;;;;10.16;100.00;98848.28;4992193;28;20453;-66
2021/11/07 12:33:19;;;;;;;;;;;;;;;10.39;100.00;98850.13;4975423;28;19964;-66
2021/11/07 12:35:53;;;;;;;;;;;;;;;10.45;100.00;98842.19;4974237;28;19922;-67
2021/11/07 12:41:24;;;;;;;;;;;;;;;10.73;100.00;98833.50;4991464;28;21073;-67
2021/11/07 12:43:50;;;;;;;;;;;;;;;10.48;100.00;98832.69;4991164;28;20012;-66
2021/11/07 12:46:40;;;;;;;;;;;;;;;10.49;100.00;98824.06;4960088;28;19921;-67
2021/11/07 12:49:05;;;;;;;;;;;;;;;10.69;100.00;98821.63;4977225;28;19951;-66
2021/11/07 12:51:33;;;;;;;;;;;;;;;10.26;100.00;98830.78;4992483;28;19925;-67
2021/11/07 12:54:06;;;;;;;;;;;;;;;10.46;100.00;98823.28;4992055;28;19920;-66
2021/11/07 12:56:35;;;;;;;;;;;;;;;10.43;100.00;98820.81;4994986;28;19921;-67
2021/11/07 12:59:05;;;;;;;;;;;;;;;10.35;100.00;98817.66;4994678;28;19927;-64
2021/11/07 13:01:30;;;;;;;;;;;;;;;10.68;100.00;98822.53;4993754;28;20381;-63
2021/11/07 13:03:59;;;;;;;;;;;;;;;10.47;100.00;98821.56;4977867;28;19921;-64
2021/11/07 13:06:29;;;;;;;;;;;;;;;10.62;100.00;98818.44;4993395;28;19930;-64
2021/11/07 13:08:59;;;;;;;;;;;;;;;10.63;100.00;98816.72;4959985;28;19921;-63
2021/11/07 13:11:35;;;;;;;;;;;;;;;10.42;100.00;98802.84;4978038;28;19917;-64
2021/11/07 13:14:07;;;;;;;;;;;;;;;10.30;100.00;98803.25;4979502;28;19921;-63
2021/11/07 13:17:16;;;;;;;;;;;;;;;10.38;100.00;98804.69;4998022;28;20020;-63
2021/11/07 13:19:44;;;;;;;;;;;;;;;10.21;100.00;98804.38;4989059;28;19924;-64
2021/11/07 13:25:45;;;;;;;;;;;;;;;10.31;100.00;98816.09;4998547;28;19918;-63
2021/11/07 13:27:41;;;;;;;;;;;;;;;10.43;100.00;98807.94;4990532;28;20512;-63
2021/11/07 13:30:14;;;;;;;;;;;;;;;10.61;100.00;98792.75;4998143;28;19918;-63
2021/11/07 13:32:40;;;;;;;;;;;;;;;10.53;100.00;98797.31;4987608;28;20305;-64
2021/11/07 13:35:13;;;;;;;;;;;;;;;10.49;100.00;98798.31;4998594;28;19917;-63
2021/11/07 13:37:57;;;;;;;;;;;;;;;10.55;100.00;98804.09;4980409;28;19956;-63
2021/11/07 13:40:32;;;;;;;;;;;;;;;10.84;100.00;98799.66;4998107;28;19921;-63
2021/11/07 13:43:17;;;;;;;;;;;;;;;10.85;100.00;98802.16;4997475;28;20020;-63
2021/11/07 13:45:44;;;;;;;;;;;;;;;11.00;100.00;98797.34;4998201;28;19913;-63
2021/11/07 13:48:19;;;;;;;;;;;;;;;10.51;100.00;98807.66;4997466;28;20374;-63
2021/11/07 13:50:45;;;;;;;;;;;;;;;10.80;100.00;98810.94;4997479;28;19921;-63
2021/11/07 13:53:25;;;;;;;;;;;;;;;10.57;100.00;98816.91;4980543;28;19940;-63
2021/11/07 13:55:51;;;;;;;;;;;;;;;10.35;100.00;98812.50;4980607;28;20095;-63
2021/11/07 13:58:17;;;;;;;;;;;;;;;10.26;100.00;98823.06;4997063;28;19923;-63
2021/11/07 14:00:46;;;;;;;;;;;;;;;10.14;100.00;98833.78;4963382;28;19945;-64
2021/11/07 14:03:13;;;;;;;;;;;;;;;10.30;100.00;98814.38;4979856;28;20374;-63
2021/11/07 14:05:46;;;;;;;;;;;;;;;10.26;100.00;98823.06;4997997;28;20048;-63
2021/11/07 14:08:12;;;;;;;;;;;;;;;10.09;100.00;98825.38;4978158;28;19921;-63
2021/11/07 14:10:38;;;;;;;;;;;;;;;10.01;100.00;98839.34;4996649;28;20705;-63
2021/11/07 14:13:14;;;;;;;;;;;;;;;10.01;100.00;98828.19;4997048;28;20316;-63
2021/11/07 14:15:44;;;;;;;;;;;;;;;9.92;100.00;98834.50;4997022;28;20343;-63
2021/11/07 14:18:17;;;;;;;;;;;;;;;9.96;100.00;98836.06;4994670;28;19930;-63
2021/11/07 14:20:47;;;;;;;;;;;;;;;9.82;100.00;98840.81;4995476;28;21410;-63
2021/11/07 14:24:27;;;;;;;;;;;;;;;9.77;100.00;98847.81;4995969;28;19921;-63
2021/11/07 14:26:42;;;;;;;;;;;;;;;9.95;100.00;98859.28;4982643;28;19933;-63
2021/11/07 14:32:01;;;;;;;;;;;;;;;9.52;100.00;98874.28;4995906;28;19925;-63
2021/11/07 14:34:39;;;;;;;;;;;;;;;8.32;100.00;98921.13;4996705;28;19968;-64
2021/11/07 14:37:12;;;;;;;;;;;;;;;8.02;100.00;98948.34;4980923;28;19928;-64
2021/11/07 14:42:45;;;;;;;;;;;;;;;7.95;100.00;99019.44;4997069;28;19925;-64
2021/11/07 14:45:27;;;;;;;;;;;;;;;7.85;100.00;99058.97;4992157;28;20681;-64
2021/11/07 14:51:53;;;;;;;;;;;;;;;8.01;100.00;99089.44;4995697;28;19968;-64
2021/11/07 15:02:09;;;;;;;;;;;;;;;8.27;100.00;99104.28;4997484;28;19921;-63
2021/11/07 15:04:44;;;;;;;;;;;;;;;8.28;100.00;99114.53;4997146;28;19920;-65
2021/11/07 15:07:13;;;;;;;;;;;;;;;8.39;100.00;99119.41;4996608;28;20003;-64
2021/11/07 15:12:49;;;;;;;;;;;;;;;8.22;100.00;99114.63;4899306;29;19919;-64
2021/11/07 15:15:40;;;;;;;;;;;;;;;8.26;100.00;99106.00;4898366;29;19950;-64
2021/11/07 15:18:20;;;;;;;;;;;;;;;8.30;100.00;99097.38;4898258;29;20006;-64
2021/11/07 15:21:09;;;;;;;;;;;;;;;8.47;100.00;99078.22;4897568;29;19923;-64
2021/11/07 15:23:39;;;;;;;;;;;;;;;8.36;100.00;99076.69;4884252;29;19955;-64
2021/11/07 15:26:36;;;;;;;;;;;;;;;8.29;100.00;99067.44;4897732;29;19970;-64
2021/11/07 15:29:04;;;;;;;;;;;;;;;8.32;100.00;99063.97;4897565;29;19966;-64
2021/11/07 15:31:30;;;;;;;;;;;;;;;8.36;100.00;99055.31;4897825;29;19946;-64
2021/11/07 15:33:56;;;;;;;;;;;;;;;8.30;100.00;99050.31;4896205;29;20383;-64
2021/11/07 15:36:29;;;;;;;;;;;;;;;8.18;100.00;99051.44;4880611;29;20555;-63
2021/11/07 15:39:05;;;;;;;;;;;;;;;8.31;100.00;99037.47;4876289;29;19915;-64
2021/11/07 15:41:34;;;;;;;;;;;;;;;8.23;100.00;99039.34;4905430;29;20386;-64
2021/11/07 15:44:06;;;;;;;;;;;;;;;8.23;100.00;99036.78;4896603;29;19923;-64
2021/11/07 15:46:37;;;;;;;;;;;;;;;8.27;100.00;99040.97;4895924;29;19968;-64
2021/11/07 15:49:02;;;;;;;;;;;;;;;8.28;100.00;99042.69;4976639;28;19982;-64
2021/11/07 15:51:35;;;;;;;;;;;;;;;8.11;100.00;99034.50;4996597;28;19957;-64
2021/11/07 16:04:13;;;;;;;;;;;;;;;8.01;100.00;99033.00;4982748;28;19925;-63
2021/11/07 16:09:41;;;;;;;;;;;;;;;7.96;100.00;99040.81;4995055;28;19924;-63
2021/11/07 16:12:19;;;;;;;;;;;;;;;7.80;100.00;99040.28;4994736;28;19944;-63
2021/11/07 16:17:34;;;;;;;;;;;;;;;8.06;100.00;99028.63;4993865;28;20132;-64
2021/11/07 16:20:01;;;;;;;;;;;;;;;7.74;100.00;99042.94;4989250;28;19925;-64
2021/11/07 16:22:27;;;;;;;;;;;;;;;7.83;100.00;99035.06;4993292;28;19921;-64
2021/11/07 16:24:53;;;;;;;;;;;;;;;7.88;100.00;99043.50;4976083;28;19917;-64
2021/11/07 16:27:22;;;;;;;;;;;;;;;7.91;100.00;99019.53;4994400;28;19917;-64
2021/11/07 16:29:51;;;;;;;;;;;;;;;7.91;100.00;99028.09;4980832;28;19936;-64
2021/11/07 16:35:00;;;;;;;;;;;;;;;7.84;100.00;99047.00;4993742;28;19918;-64
2021/11/07 16:37:30;;;;;;;;;;;;;;;7.74;100.00;99048.06;4993615;28;20044;-64
2021/11/07 16:40:11;;;;;;;;;;;;;;;7.80;100.00;99037.72;4990090;28;20278;-63
2021/11/07 16:42:41;;;;;;;;;;;;;;;7.82;100.00;99042.78;4993676;28;21778;-63
2021/11/07 16:45:10;;;;;;;;;;;;;;;7.83;100.00;99049.63;4993042;28;19918;-64
2021/11/07 16:47:38;;;;;;;;;;;;;;;7.63;100.00;99063.66;4979745;28;19935;-64
2021/11/07 16:50:05;;;;;;;;;;;;;;;7.67;100.00;99049.06;4994955;28;19922;-63
2021/11/07 16:52:31;;;;;;;;;;;;;;;7.51;100.00;99067.31;4963576;28;20247;-63
2021/11/07 16:57:26;;;;;;;;;;;;;;;7.40;100.00;99071.78;4999997;28;19917;-64
2021/11/07 17:02:26;;;;;;;;;;;;;;;7.61;100.00;99085.06;4999974;28;19995;-63
2021/11/07 17:07:23;;;;;;;;;;;;;;;7.67;100.00;99087.53;4999808;28;19993;-63